createdAt,value
2023-05-01T00:00:05.653Z,80.72
2023-05-01T00:01:08.933Z,81.00
2023-05-01T00:02:12.753Z,81.17
2023-05-01T00:03:18.913Z,80.94
2023-05-01T00:04:23.654Z,80.87
2023-05-01T00:05:27.768Z,80.75
2023-05-01T00:06:33.979Z,81.08
2023-05-01T00:07:37.988Z,80.92
2023-05-01T00:08:41.724Z,80.89
2023-05-01T00:09:45.857Z,80.73
2023-05-01T00:10:49.257Z,81.23
2023-05-01T00:11:52.539Z,81.01
2023-05-01T00:12:55.730Z,81.01
2023-05-01T00:13:59.332Z,80.80
2023-05-01T00:15:02.781Z,80.95
2023-05-01T00:16:12.519Z,80.79
2023-05-01T00:17:16.260Z,80.51
2023-05-01T00:18:19.775Z,80.60
2023-05-01T00:19:23.178Z,80.96
2023-05-01T00:20:30.694Z,80.66
2023-05-01T00:21:34.708Z,80.60
2023-05-01T00:22:38.676Z,80.26
2023-05-01T00:23:42.047Z,80.09
2023-05-01T00:24:45.989Z,80.29
2023-05-01T00:25:50.089Z,80.19
2023-05-01T00:26:53.564Z,80.15
2023-05-01T00:27:56.985Z,80.14
2023-05-01T00:29:00.068Z,79.97
2023-05-01T00:30:04.398Z,79.86
2023-05-01T00:31:07.852Z,79.98
2023-05-01T00:32:12.079Z,80.24
2023-05-01T00:33:16.419Z,80.07
2023-05-01T00:34:20.414Z,80.18
2023-05-01T00:35:24.360Z,80.33
2023-05-01T00:36:28.124Z,80.16
2023-05-01T00:37:31.703Z,80.17
2023-05-01T00:38:34.854Z,80.42
2023-05-01T00:39:38.081Z,80.21
2023-05-01T00:40:47.859Z,80.24
2023-05-01T00:41:51.867Z,80.12
2023-05-01T00:42:56.356Z,80.27
2023-05-01T00:44:00.573Z,80.00
2023-05-01T00:45:05.026Z,80.19
2023-05-01T00:46:09.202Z,80.09
2023-05-01T00:47:13.332Z,79.96
2023-05-01T00:48:17.320Z,80.00
2023-05-01T00:49:21.006Z,80.22
2023-05-01T00:50:24.907Z,79.92
2023-05-01T00:51:28.816Z,79.94
2023-05-01T00:52:31.829Z,79.95
2023-05-01T00:53:35.560Z,80.15
2023-05-01T00:54:39.131Z,80.32
2023-05-01T00:55:43.021Z,80.25
2023-05-01T00:56:48.608Z,80.27
2023-05-01T00:57:52.241Z,80.68
2023-05-01T00:58:56.116Z,80.72
2023-05-01T01:00:00.072Z,80.65
2023-05-01T01:01:04.147Z,80.16
2023-05-01T01:02:08.306Z,80.57
2023-05-01T01:03:12.688Z,80.44
2023-05-01T01:04:16.765Z,80.28
2023-05-01T01:05:20.684Z,80.66
2023-05-01T01:06:44.777Z,80.42
2023-05-01T01:08:27.787Z,80.21
2023-05-01T01:09:46.393Z,80.47
2023-05-01T01:11:16.562Z,80.05
2023-05-01T01:12:33.238Z,80.41
2023-05-01T01:13:45.428Z,80.09
2023-05-01T01:14:56.533Z,79.89
2023-05-01T01:16:22.522Z,80.42
2023-05-01T01:17:48.044Z,79.89
2023-05-01T01:18:59.527Z,79.83
2023-05-01T01:20:30.188Z,79.82
2023-05-01T01:21:41.598Z,79.89
2023-05-01T01:22:47.791Z,79.83
2023-05-01T01:24:10.322Z,79.85
2023-05-01T01:25:31.158Z,79.98
2023-05-01T01:26:35.009Z,79.71
2023-05-01T01:28:07.335Z,79.77
2023-05-01T01:29:40.666Z,79.91
2023-05-01T01:31:05.250Z,80.00
2023-05-01T01:32:40.485Z,79.75
2023-05-01T01:33:56.579Z,79.84
2023-05-01T01:35:11.401Z,79.98
2023-05-01T01:36:22.376Z,80.10
2023-05-01T01:37:30.353Z,79.98
2023-05-01T01:38:41.949Z,80.04
2023-05-01T01:39:56.463Z,80.39
2023-05-01T01:41:15.905Z,80.44
2023-05-01T01:42:37.615Z,80.74
2023-05-01T01:43:44.142Z,81.07
2023-05-01T01:44:55.906Z,81.05
2023-05-01T01:46:01.735Z,80.80
2023-05-01T01:47:07.262Z,81.20
2023-05-01T01:48:18.746Z,81.82
2023-05-01T01:49:26.806Z,82.44
2023-05-01T01:50:30.693Z,82.37
2023-05-01T01:51:34.310Z,83.67
2023-05-01T01:52:38.743Z,84.09
2023-05-01T01:53:46.271Z,84.58
2023-05-01T01:54:54.391Z,84.59
2023-05-01T01:55:58.293Z,84.65
2023-05-01T01:57:03.263Z,85.20
2023-05-01T01:58:07.090Z,85.24
2023-05-01T01:59:11.352Z,85.02
2023-05-01T02:00:14.857Z,85.00
2023-05-01T02:01:22.768Z,84.99
2023-05-01T02:02:27.759Z,84.58
2023-05-01T02:03:32.298Z,84.51
2023-05-01T02:04:35.927Z,84.27
2023-05-01T02:05:41.786Z,84.32
2023-05-01T02:06:45.183Z,84.00
2023-05-01T02:07:50.335Z,83.74
2023-05-01T02:08:53.645Z,84.25
2023-05-01T02:09:57.375Z,83.65
2023-05-01T02:11:02.200Z,83.67
2023-05-01T02:12:06.721Z,83.88
2023-05-01T02:13:10.784Z,83.60
2023-05-01T02:14:14.406Z,83.40
2023-05-01T02:15:19.309Z,83.56
2023-05-01T02:16:23.980Z,83.22
2023-05-01T02:17:28.789Z,83.35
2023-05-01T02:18:32.437Z,83.52
2023-05-01T02:19:35.566Z,83.12
2023-05-01T02:20:39.204Z,83.19
2023-05-01T02:21:42.315Z,83.05
2023-05-01T02:22:46.857Z,83.35
2023-05-01T02:23:51.316Z,83.77
2023-05-01T02:24:55.315Z,83.39
2023-05-01T02:25:59.029Z,83.39
2023-05-01T02:27:20.077Z,83.47
2023-05-01T02:28:24.278Z,83.40
2023-05-01T02:29:28.204Z,83.40
2023-05-01T02:30:31.492Z,83.56
2023-05-01T02:31:36.087Z,84.16
2023-05-01T02:32:40.456Z,83.79
2023-05-01T02:33:44.053Z,83.77
2023-05-01T02:34:48.006Z,83.77
2023-05-01T02:35:51.558Z,84.34
2023-05-01T02:36:55.044Z,83.71
2023-05-01T02:37:58.744Z,85.03
2023-05-01T02:39:02.452Z,85.03
2023-05-01T02:40:07.551Z,85.14
2023-05-01T02:41:12.270Z,84.91
2023-05-01T02:42:16.750Z,84.42
2023-05-01T02:43:21.736Z,84.24
2023-05-01T02:44:25.051Z,84.30
2023-05-01T02:45:28.804Z,84.28
2023-05-01T02:46:33.041Z,84.42
2023-05-01T02:47:39.477Z,84.13
2023-05-01T02:48:42.870Z,84.19
2023-05-01T02:49:48.654Z,84.09
2023-05-01T02:50:52.799Z,84.07
2023-05-01T02:51:56.722Z,84.52
2023-05-01T02:53:01.544Z,84.32
2023-05-01T02:54:15.556Z,83.93
2023-05-01T02:55:20.069Z,84.34
2023-05-01T02:56:24.069Z,84.55
2023-05-01T02:57:27.744Z,84.51
2023-05-01T02:58:33.338Z,84.63
2023-05-01T02:59:37.837Z,84.58
2023-05-01T03:00:41.927Z,84.40
2023-05-01T03:01:45.296Z,84.12
2023-05-01T03:02:48.731Z,83.88
2023-05-01T03:03:52.844Z,83.75
2023-05-01T03:04:57.597Z,83.63
2023-05-01T03:06:01.683Z,83.41
2023-05-01T03:07:07.329Z,83.70
2023-05-01T03:08:11.677Z,83.40
2023-05-01T03:09:16.075Z,83.46
2023-05-01T03:10:19.675Z,83.29
2023-05-01T03:11:23.472Z,83.05
2023-05-01T03:12:26.962Z,83.21
2023-05-01T03:13:30.660Z,83.03
2023-05-01T03:14:34.270Z,83.20
2023-05-01T03:15:38.535Z,82.89
2023-05-01T03:16:42.217Z,83.19
2023-05-01T03:17:46.206Z,83.39
2023-05-01T03:18:50.508Z,83.42
2023-05-01T03:19:53.801Z,83.43
2023-05-01T03:20:59.967Z,83.26
2023-05-01T03:22:04.753Z,82.71
2023-05-01T03:23:08.344Z,82.57
2023-05-01T03:24:12.276Z,82.43
2023-05-01T03:25:16.688Z,82.24
2023-05-01T03:26:20.279Z,82.28
2023-05-01T03:27:23.844Z,82.31
2023-05-01T03:28:28.113Z,82.14
2023-05-01T03:29:32.320Z,82.15
2023-05-01T03:30:37.292Z,82.14
2023-05-01T03:31:41.223Z,82.42
2023-05-01T03:32:47.611Z,82.38
2023-05-01T03:33:59.560Z,82.40
2023-05-01T03:35:03.376Z,82.29
2023-05-01T03:36:07.142Z,82.38
2023-05-01T03:37:11.578Z,81.90
2023-05-01T03:38:15.541Z,81.90
2023-05-01T03:39:55.287Z,81.34
2023-05-01T03:41:16.844Z,81.78
2023-05-01T03:42:39.065Z,81.57
2023-05-01T03:43:50.977Z,81.93
2023-05-01T03:45:16.357Z,81.94
2023-05-01T03:46:20.274Z,81.80
2023-05-01T03:47:24.577Z,81.68
2023-05-01T03:48:28.236Z,81.50
2023-05-01T03:49:31.743Z,81.50
2023-05-01T03:50:35.154Z,81.25
2023-05-01T03:51:38.571Z,81.97
2023-05-01T03:52:42.595Z,81.78
2023-05-01T03:53:46.594Z,81.95
2023-05-01T03:54:50.532Z,82.18
2023-05-01T03:56:00.145Z,81.96
2023-05-01T03:57:03.592Z,81.90
2023-05-01T03:58:08.212Z,82.14
2023-05-01T03:59:12.004Z,82.09
2023-05-01T04:00:15.947Z,82.36
2023-05-01T04:01:19.073Z,82.53
2023-05-01T04:02:25.442Z,82.85
2023-05-01T04:03:29.630Z,82.49
2023-05-01T04:04:34.187Z,82.31
2023-05-01T04:05:38.216Z,81.90
2023-05-01T04:06:42.566Z,81.83
2023-05-01T04:07:45.985Z,81.70
2023-05-01T04:08:50.183Z,81.79
2023-05-01T04:09:53.705Z,81.70
2023-05-01T04:10:57.530Z,81.55
2023-05-01T04:12:03.270Z,81.47
2023-05-01T04:13:08.060Z,81.45
2023-05-01T04:14:11.999Z,81.34
2023-05-01T04:15:17.037Z,81.55
2023-05-01T04:16:20.579Z,81.42
2023-05-01T04:17:24.662Z,81.22
2023-05-01T04:18:28.424Z,81.20
2023-05-01T04:19:36.236Z,81.15
2023-05-01T04:20:40.921Z,81.31
2023-05-01T04:21:44.625Z,81.56
2023-05-01T04:22:48.738Z,81.07
2023-05-01T04:23:52.799Z,81.19
2023-05-01T04:24:57.010Z,81.10
2023-05-01T04:26:00.516Z,80.87
2023-05-01T04:27:03.702Z,80.45
2023-05-01T04:28:07.232Z,80.39
2023-05-01T04:29:11.029Z,80.51
2023-05-01T04:30:14.580Z,80.29
2023-05-01T04:31:18.541Z,80.21
2023-05-01T04:32:22.587Z,79.98
2023-05-01T04:33:26.669Z,79.95
2023-05-01T04:34:31.047Z,79.86
2023-05-01T04:35:34.196Z,79.67
2023-05-01T04:36:38.104Z,79.85
2023-05-01T04:37:42.217Z,79.83
2023-05-01T04:38:46.299Z,79.94
2023-05-01T04:39:51.888Z,79.67
2023-05-01T04:40:57.337Z,79.73
2023-05-01T04:42:01.138Z,79.97
2023-05-01T04:43:05.144Z,80.02
2023-05-01T04:44:09.305Z,81.29
2023-05-01T04:45:13.158Z,80.89
2023-05-01T04:46:17.347Z,80.53
2023-05-01T04:47:21.424Z,80.45
2023-05-01T04:48:25.353Z,80.58
2023-05-01T04:49:28.600Z,81.01
2023-05-01T04:50:32.831Z,81.42
2023-05-01T04:51:36.715Z,81.36
2023-05-01T04:52:40.218Z,81.14
2023-05-01T04:53:43.576Z,81.22
2023-05-01T04:54:58.886Z,80.83
2023-05-01T04:56:05.122Z,81.06
2023-05-01T04:57:10.061Z,81.19
2023-05-01T04:58:13.784Z,80.68
2023-05-01T04:59:18.074Z,80.81
2023-05-01T05:00:22.437Z,80.85
2023-05-01T05:01:31.564Z,80.89
2023-05-01T05:02:35.559Z,81.25
2023-05-01T05:03:39.014Z,81.63
2023-05-01T05:04:42.645Z,82.03
2023-05-01T05:05:47.454Z,82.11
2023-05-01T05:06:51.926Z,81.57
2023-05-01T05:08:03.712Z,82.39
2023-05-01T05:09:12.124Z,82.10
2023-05-01T05:10:15.991Z,81.85
2023-05-01T05:11:25.513Z,82.20
2023-05-01T05:12:49.722Z,82.94
2023-05-01T05:13:53.458Z,83.28
2023-05-01T05:14:57.304Z,83.05
2023-05-01T05:16:01.418Z,82.55
2023-05-01T05:17:05.321Z,82.28
2023-05-01T05:18:08.911Z,82.92
2023-05-01T05:19:12.303Z,82.34
2023-05-01T05:20:18.899Z,82.98
2023-05-01T05:21:22.423Z,82.85
2023-05-01T05:22:29.603Z,82.89
2023-05-01T05:23:54.054Z,82.64
2023-05-01T05:25:01.429Z,83.19
2023-05-01T05:26:06.155Z,83.62
2023-05-01T05:27:09.366Z,83.63
2023-05-01T05:28:13.188Z,83.07
2023-05-01T05:29:18.509Z,83.86
2023-05-01T05:30:21.779Z,83.25
2023-05-01T05:31:25.502Z,83.13
2023-05-01T05:32:30.428Z,83.18
2023-05-01T05:33:33.930Z,83.13
2023-05-01T05:34:37.600Z,82.88
2023-05-01T05:35:41.559Z,82.86
2023-05-01T05:36:44.837Z,83.18
2023-05-01T05:37:48.280Z,83.70
2023-05-01T05:38:52.797Z,84.12
2023-05-01T05:39:56.556Z,84.27
2023-05-01T05:41:01.892Z,83.95
2023-05-01T05:42:07.097Z,83.17
2023-05-01T05:43:11.690Z,83.16
2023-05-01T05:44:16.490Z,84.12
2023-05-01T05:45:21.936Z,84.13
2023-05-01T05:46:25.617Z,84.28
2023-05-01T05:47:29.199Z,84.32
2023-05-01T05:48:33.030Z,84.02
2023-05-01T05:49:37.173Z,84.21
2023-05-01T05:50:41.058Z,84.13
2023-05-01T05:51:45.657Z,83.89
2023-05-01T05:52:49.215Z,83.66
2023-05-01T05:53:53.219Z,83.94
2023-05-01T05:54:57.278Z,83.98
2023-05-01T05:56:01.148Z,83.82
2023-05-01T05:57:07.387Z,83.41
2023-05-01T05:58:20.859Z,83.65
2023-05-01T05:59:25.950Z,83.61
2023-05-01T06:00:29.751Z,83.46
2023-05-01T06:01:38.259Z,83.47
2023-05-01T06:02:42.178Z,83.34
2023-05-01T06:03:45.826Z,83.31
2023-05-01T06:04:49.869Z,83.00
2023-05-01T06:05:56.255Z,83.25
2023-05-01T06:07:01.257Z,82.90
2023-05-01T06:08:05.111Z,82.95
2023-05-01T06:09:13.684Z,82.88
2023-05-01T06:10:17.972Z,82.55
2023-05-01T06:11:22.404Z,82.46
2023-05-01T06:12:26.352Z,82.49
2023-05-01T06:13:30.318Z,82.70
2023-05-01T06:14:33.749Z,82.86
2023-05-01T06:15:40.456Z,82.64
2023-05-01T06:16:43.902Z,82.47
2023-05-01T06:17:47.149Z,82.63
2023-05-01T06:18:50.526Z,82.40
2023-05-01T06:19:54.122Z,82.31
2023-05-01T06:20:58.048Z,82.19
2023-05-01T06:22:02.195Z,82.09
2023-05-01T06:23:10.628Z,82.09
2023-05-01T06:24:24.097Z,81.94
2023-05-01T06:25:29.141Z,82.05
2023-05-01T06:26:32.574Z,81.97
2023-05-01T06:27:36.569Z,81.86
2023-05-01T06:28:40.363Z,81.86
2023-05-01T06:29:43.994Z,82.07
2023-05-01T06:30:47.227Z,81.96
2023-05-01T06:31:52.470Z,81.62
2023-05-01T06:32:56.388Z,81.61
2023-05-01T06:34:00.365Z,81.85
2023-05-01T06:35:24.034Z,81.41
2023-05-01T06:36:27.604Z,81.28
2023-05-01T06:37:31.748Z,81.33
2023-05-01T06:38:36.204Z,81.67
2023-05-01T06:39:40.058Z,81.56
2023-05-01T06:40:43.765Z,81.37
2023-05-01T06:41:48.619Z,81.13
2023-05-01T06:43:00.339Z,81.42
2023-05-01T06:44:05.667Z,81.16
2023-05-01T06:45:09.136Z,81.06
2023-05-01T06:46:13.050Z,81.03
2023-05-01T06:47:17.251Z,80.81
2023-05-01T06:48:20.436Z,80.64
2023-05-01T06:49:24.254Z,80.67
2023-05-01T06:50:27.792Z,80.55
2023-05-01T06:51:32.507Z,80.42
2023-05-01T06:52:35.872Z,79.91
2023-05-01T06:53:40.953Z,79.91
2023-05-01T06:54:44.732Z,79.97
2023-05-01T06:55:48.466Z,80.26
2023-05-01T06:56:52.210Z,80.13
2023-05-01T06:57:55.338Z,80.24
2023-05-01T06:58:58.914Z,80.16
2023-05-01T07:00:02.799Z,80.36
2023-05-01T07:01:06.826Z,80.49
2023-05-01T07:02:10.991Z,80.36
2023-05-01T07:03:15.153Z,80.39
2023-05-01T07:04:18.490Z,80.13
2023-05-01T07:05:23.386Z,80.22
2023-05-01T07:06:28.317Z,80.24
2023-05-01T07:07:32.537Z,79.94
2023-05-01T07:08:36.289Z,79.97
2023-05-01T07:09:39.977Z,80.07
2023-05-01T07:10:43.850Z,79.99
2023-05-01T07:11:47.320Z,79.97
2023-05-01T07:12:51.526Z,79.86
2023-05-01T07:13:55.851Z,79.66
2023-05-01T07:14:59.295Z,79.58
2023-05-01T07:16:03.292Z,79.62
2023-05-01T07:17:07.744Z,79.38
2023-05-01T07:18:12.976Z,79.66
2023-05-01T07:19:16.382Z,79.46
2023-05-01T07:20:19.508Z,79.13
2023-05-01T07:21:22.836Z,79.42
2023-05-01T07:22:26.142Z,79.16
2023-05-01T07:23:29.640Z,79.11
2023-05-01T07:24:33.189Z,78.99
2023-05-01T07:25:41.890Z,79.22
2023-05-01T07:26:45.022Z,79.18
2023-05-01T07:27:48.437Z,79.04
2023-05-01T07:28:52.384Z,78.93
2023-05-01T07:29:58.775Z,78.59
2023-05-01T07:31:02.623Z,78.40
2023-05-01T07:32:07.074Z,78.21
2023-05-01T07:33:10.624Z,78.42
2023-05-01T07:34:14.738Z,78.56
2023-05-01T07:35:18.668Z,78.66
2023-05-01T07:36:22.844Z,78.65
2023-05-01T07:37:28.032Z,78.01
2023-05-01T07:38:31.678Z,77.98
2023-05-01T07:39:35.508Z,78.28
2023-05-01T07:40:39.628Z,77.92
2023-05-01T07:41:43.594Z,77.62
2023-05-01T07:42:47.494Z,77.62
2023-05-01T07:43:51.530Z,77.49
2023-05-01T07:44:55.622Z,77.51
2023-05-01T07:46:02.232Z,77.27
2023-05-01T07:47:06.788Z,77.32
2023-05-01T07:48:10.416Z,77.14
2023-05-01T07:49:14.117Z,76.70
2023-05-01T07:50:17.781Z,76.76
2023-05-01T07:51:21.268Z,76.44
2023-05-01T07:52:24.833Z,75.97
2023-05-01T07:53:28.743Z,75.75
2023-05-01T07:54:32.233Z,75.54
2023-05-01T07:55:35.549Z,75.45
2023-05-01T07:56:38.910Z,75.30
2023-05-01T07:57:42.935Z,75.24
2023-05-01T07:58:46.783Z,75.00
2023-05-01T07:59:54.733Z,74.95
2023-05-01T08:00:58.053Z,74.75
2023-05-01T08:02:01.687Z,74.27
2023-05-01T08:03:05.939Z,74.17
2023-05-01T08:04:09.737Z,73.97
2023-05-01T08:05:13.407Z,73.63
2023-05-01T08:06:17.205Z,73.39
2023-05-01T08:07:21.222Z,73.06
2023-05-01T08:08:24.894Z,72.72
2023-05-01T08:09:28.438Z,72.42
2023-05-01T08:10:31.830Z,71.96
2023-05-01T08:11:35.716Z,71.64
2023-05-01T08:12:40.188Z,71.39
2023-05-01T08:13:44.111Z,71.34
2023-05-01T08:14:47.963Z,71.13
2023-05-01T08:15:51.657Z,70.88
2023-05-01T08:16:56.265Z,70.35
2023-05-01T08:17:59.853Z,70.62
2023-05-01T08:19:03.817Z,70.58
2023-05-01T08:20:07.734Z,70.32
2023-05-01T08:21:11.922Z,70.45
2023-05-01T08:22:15.747Z,70.08
2023-05-01T08:23:19.594Z,70.09
2023-05-01T08:24:23.288Z,69.43
2023-05-01T08:25:26.405Z,69.07
2023-05-01T08:26:30.055Z,68.26
2023-05-01T08:27:34.749Z,68.44
2023-05-01T08:28:38.575Z,68.50
2023-05-01T08:29:42.818Z,67.46
2023-05-01T08:30:46.791Z,66.24
2023-05-01T08:31:49.922Z,65.02
2023-05-01T08:32:53.605Z,62.08
2023-05-01T08:33:57.020Z,60.70
2023-05-01T08:34:59.959Z,58.50
2023-05-01T08:36:03.568Z,56.64
2023-05-01T08:37:07.277Z,55.65
2023-05-01T08:38:12.192Z,54.82
2023-05-01T08:39:16.587Z,54.30
2023-05-01T08:40:20.307Z,53.68
2023-05-01T08:41:24.636Z,52.32
2023-05-01T08:42:29.823Z,51.17
2023-05-01T08:43:34.581Z,51.14
2023-05-01T08:44:40.426Z,50.14
2023-05-01T08:45:44.381Z,48.36
2023-05-01T08:46:53.998Z,47.44
2023-05-01T08:47:57.482Z,46.67
2023-05-01T08:49:01.021Z,45.52
2023-05-01T08:50:04.752Z,44.11
2023-05-01T08:51:08.639Z,43.06
2023-05-01T08:52:12.708Z,42.33
2023-05-01T08:53:19.179Z,41.61
2023-05-01T08:54:23.362Z,40.90
2023-05-01T08:55:26.776Z,41.14
2023-05-01T08:56:32.325Z,40.42
2023-05-01T08:57:36.343Z,40.20
2023-05-01T08:58:39.798Z,39.83
2023-05-01T08:59:43.861Z,39.19
2023-05-01T09:00:48.202Z,38.94
2023-05-01T09:01:51.688Z,39.23
2023-05-01T09:02:55.204Z,38.21
2023-05-01T09:03:59.582Z,38.59
2023-05-01T09:05:04.892Z,37.45
2023-05-01T09:06:08.508Z,37.93
2023-05-01T09:07:12.999Z,37.03
2023-05-01T09:08:17.094Z,37.25
2023-05-01T09:09:20.845Z,36.71
2023-05-01T09:10:24.558Z,36.85
2023-05-01T09:11:28.500Z,36.43
2023-05-01T09:12:36.033Z,36.14
2023-05-01T09:13:39.745Z,35.53
2023-05-01T09:14:43.584Z,35.49
2023-05-01T09:15:47.283Z,35.11
2023-05-01T09:16:50.816Z,34.91
2023-05-01T09:17:55.312Z,34.65
2023-05-01T09:19:00.003Z,34.83
2023-05-01T09:20:07.172Z,34.73
2023-05-01T09:21:11.062Z,34.17
2023-05-01T09:22:14.203Z,34.32
2023-05-01T09:23:17.585Z,34.52
2023-05-01T09:24:21.883Z,34.27
2023-05-01T09:25:25.296Z,34.39
2023-05-01T09:26:28.978Z,34.44
2023-05-01T09:27:38.067Z,34.57
2023-05-01T09:28:47.861Z,34.01
2023-05-01T09:29:51.709Z,35.48
2023-05-01T09:30:54.971Z,34.70
2023-05-01T09:31:59.335Z,34.36
2023-05-01T09:33:20.660Z,35.12
2023-05-01T09:34:24.382Z,35.01
2023-05-01T09:35:28.576Z,34.66
2023-05-01T09:36:33.349Z,33.76
2023-05-01T09:37:37.567Z,33.78
2023-05-01T09:38:40.959Z,34.22
2023-05-01T09:39:44.437Z,34.46
2023-05-01T09:40:48.083Z,33.60
2023-05-01T09:41:53.671Z,33.58
2023-05-01T09:42:57.375Z,33.53
2023-05-01T09:44:00.971Z,33.57
2023-05-01T09:45:05.995Z,34.31
2023-05-01T09:46:11.617Z,33.20
2023-05-01T09:47:23.527Z,33.30
2023-05-01T09:48:27.344Z,33.94
2023-05-01T09:49:47.441Z,33.44
2023-05-01T09:50:50.493Z,33.94
2023-05-01T09:51:53.801Z,33.59
2023-05-01T09:52:57.348Z,33.60
2023-05-01T09:54:02.433Z,33.40
2023-05-01T09:55:18.727Z,32.68
2023-05-01T09:56:22.863Z,32.90
2023-05-01T09:57:41.360Z,31.78
2023-05-01T09:58:45.199Z,32.72
2023-05-01T10:00:03.715Z,33.69
2023-05-01T10:01:07.596Z,33.11
2023-05-01T10:02:28.915Z,33.65
2023-05-01T10:03:33.276Z,32.97
2023-05-01T10:04:36.829Z,33.40
2023-05-01T10:05:46.062Z,33.14
2023-05-01T10:06:49.539Z,32.71
2023-05-01T10:08:00.243Z,33.35
2023-05-01T10:09:04.642Z,32.29
2023-05-01T10:10:20.926Z,32.58
2023-05-01T10:11:25.258Z,31.49
2023-05-01T10:12:29.296Z,30.99
2023-05-01T10:13:33.292Z,31.21
2023-05-01T10:14:55.173Z,31.38
2023-05-01T10:15:59.195Z,31.19
2023-05-01T10:17:03.161Z,31.95
2023-05-01T10:18:06.885Z,31.60
2023-05-01T10:19:10.661Z,31.85
2023-05-01T10:20:14.332Z,32.13
2023-05-01T10:21:18.331Z,32.35
2023-05-01T10:22:22.905Z,32.29
2023-05-01T10:23:26.736Z,32.55
2023-05-01T10:24:30.453Z,31.60
2023-05-01T10:25:34.460Z,32.12
2023-05-01T10:26:38.605Z,33.14
2023-05-01T10:27:42.697Z,32.51
2023-05-01T10:28:49.081Z,32.52
2023-05-01T10:29:54.366Z,32.48
2023-05-01T10:30:58.813Z,33.09
2023-05-01T10:32:03.238Z,33.01
2023-05-01T10:33:07.174Z,32.57
2023-05-01T10:34:12.193Z,32.69
2023-05-01T10:35:20.150Z,33.17
2023-05-01T10:36:54.163Z,32.52
2023-05-01T10:38:03.100Z,32.98
2023-05-01T10:39:06.630Z,32.09
2023-05-01T10:40:41.180Z,31.84
2023-05-01T10:42:00.236Z,31.87
2023-05-01T10:43:18.983Z,32.15
2023-05-01T10:44:24.419Z,32.05
2023-05-01T10:45:31.613Z,32.46
2023-05-01T10:46:35.470Z,32.30
2023-05-01T10:47:42.867Z,31.83
2023-05-01T10:48:46.976Z,32.34
2023-05-01T10:50:06.081Z,32.11
2023-05-01T10:51:21.207Z,32.10
2023-05-01T10:52:25.054Z,32.52
2023-05-01T10:53:28.379Z,32.32
2023-05-01T10:54:33.599Z,32.54
2023-05-01T10:55:38.316Z,32.61
2023-05-01T10:56:43.604Z,32.45
2023-05-01T10:57:46.864Z,31.95
2023-05-01T10:59:05.754Z,32.15
2023-05-01T11:00:10.090Z,32.12
2023-05-01T11:01:35.460Z,32.63
2023-05-01T11:02:39.004Z,32.76
2023-05-01T11:03:42.614Z,32.80
2023-05-01T11:04:51.962Z,32.67
2023-05-01T11:06:01.325Z,32.97
2023-05-01T11:07:12.021Z,32.59
2023-05-01T11:08:33.930Z,32.54
2023-05-01T11:09:56.032Z,32.31
2023-05-01T11:11:06.728Z,31.83
2023-05-01T11:12:11.749Z,32.19
2023-05-01T11:13:15.941Z,32.22
2023-05-01T11:14:20.351Z,32.37
2023-05-01T11:15:34.913Z,32.96
2023-05-01T11:16:43.796Z,33.23
2023-05-01T11:17:47.814Z,32.93
2023-05-01T11:18:51.769Z,33.16
2023-05-01T11:19:55.626Z,33.94
2023-05-01T11:20:59.737Z,33.58
2023-05-01T11:22:03.219Z,33.19
2023-05-01T11:23:06.992Z,33.20
2023-05-01T11:24:10.607Z,33.30
2023-05-01T11:25:24.160Z,34.33
2023-05-01T11:26:27.725Z,33.61
2023-05-01T11:27:34.971Z,34.16
2023-05-01T11:28:39.483Z,33.88
2023-05-01T11:29:45.006Z,33.81
2023-05-01T11:30:48.713Z,33.62
2023-05-01T11:31:52.567Z,33.86
2023-05-01T11:32:55.839Z,33.59
2023-05-01T11:34:00.549Z,34.42
2023-05-01T11:35:04.298Z,34.48
2023-05-01T11:36:08.333Z,34.57
2023-05-01T11:37:12.084Z,33.54
2023-05-01T11:38:22.675Z,34.18
2023-05-01T11:39:26.277Z,33.57
2023-05-01T11:40:35.280Z,34.11
2023-05-01T11:41:39.006Z,34.13
2023-05-01T11:42:42.131Z,34.26
2023-05-01T11:43:58.873Z,34.35
2023-05-01T11:45:14.467Z,34.94
2023-05-01T11:46:28.474Z,35.37
2023-05-01T11:47:35.102Z,35.05
2023-05-01T11:48:38.964Z,35.31
2023-05-01T11:49:42.972Z,35.60
2023-05-01T11:50:47.014Z,35.41
2023-05-01T11:51:58.694Z,35.91
2023-05-01T11:53:02.496Z,36.39
2023-05-01T11:54:06.608Z,36.16
2023-05-01T11:55:11.394Z,36.11
2023-05-01T11:56:26.413Z,35.82
2023-05-01T11:57:31.834Z,35.52
2023-05-01T11:58:35.311Z,35.72
2023-05-01T11:59:39.245Z,35.64
2023-05-01T12:00:43.718Z,35.68
2023-05-01T12:01:47.734Z,36.32
2023-05-01T12:03:10.857Z,35.94
2023-05-01T12:04:15.912Z,35.51
2023-05-01T12:05:19.797Z,35.26
2023-05-01T12:06:23.492Z,35.41
2023-05-01T12:07:27.117Z,35.41
2023-05-01T12:08:30.678Z,35.95
2023-05-01T12:09:34.422Z,35.51
2023-05-01T12:10:38.570Z,35.80
2023-05-01T12:11:42.471Z,36.20
2023-05-01T12:12:45.841Z,36.70
2023-05-01T12:13:50.798Z,36.67
2023-05-01T12:14:54.494Z,36.70
2023-05-01T12:15:57.727Z,36.74
2023-05-01T12:17:01.464Z,37.32
2023-05-01T12:18:06.643Z,37.09
2023-05-01T12:19:12.847Z,37.05
2023-05-01T12:20:16.836Z,37.17
2023-05-01T12:21:20.359Z,37.11
2023-05-01T12:22:24.163Z,36.50
2023-05-01T12:23:36.077Z,37.27
2023-05-01T12:24:40.434Z,37.50
2023-05-01T12:25:44.816Z,37.72
2023-05-01T12:26:48.381Z,38.16
2023-05-01T12:27:52.267Z,38.95
2023-05-01T12:29:01.027Z,39.19
2023-05-01T12:30:04.603Z,38.97
2023-05-01T12:31:08.725Z,38.79
2023-05-01T12:32:12.486Z,38.12
2023-05-01T12:33:20.689Z,39.25
2023-05-01T12:34:30.480Z,39.25
2023-05-01T12:35:33.908Z,38.96
2023-05-01T12:36:37.787Z,38.98
2023-05-01T12:37:41.606Z,39.15
2023-05-01T12:39:01.857Z,39.23
2023-05-01T12:40:06.222Z,39.81
2023-05-01T12:41:13.227Z,39.93
2023-05-01T12:42:17.413Z,39.94
2023-05-01T12:43:33.455Z,39.95
2023-05-01T12:44:37.712Z,40.51
2023-05-01T12:45:41.848Z,40.29
2023-05-01T12:46:45.265Z,39.85
2023-05-01T12:47:48.954Z,40.02
2023-05-01T12:48:53.735Z,40.06
2023-05-01T12:50:08.495Z,40.19
2023-05-01T12:51:18.714Z,40.54
2023-05-01T12:52:26.816Z,40.75
2023-05-01T12:53:30.465Z,40.76
2023-05-01T12:54:35.882Z,40.83
2023-05-01T12:55:49.316Z,40.92
2023-05-01T12:56:55.646Z,40.12
2023-05-01T12:57:58.935Z,41.15
2023-05-01T12:59:02.541Z,40.72
2023-05-01T13:00:06.229Z,40.65
2023-05-01T13:01:10.038Z,40.91
2023-05-01T13:02:16.631Z,40.61
2023-05-01T13:03:27.919Z,41.31
2023-05-01T13:04:31.930Z,40.52
2023-05-01T13:05:35.932Z,40.93
2023-05-01T13:06:40.052Z,40.85
2023-05-01T13:07:49.261Z,41.55
2023-05-01T13:08:53.094Z,42.02
2023-05-01T13:09:59.923Z,42.67
2023-05-01T13:11:11.211Z,42.13
2023-05-01T13:12:14.816Z,42.17
2023-05-01T13:13:27.795Z,42.43
2023-05-01T13:14:31.501Z,42.10
2023-05-01T13:15:34.849Z,42.22
2023-05-01T13:16:47.784Z,42.32
2023-05-01T13:17:51.881Z,42.62
2023-05-01T13:18:56.056Z,42.06
2023-05-01T13:20:03.524Z,42.31
2023-05-01T13:21:11.339Z,41.84
2023-05-01T13:22:14.675Z,41.60
2023-05-01T13:23:18.154Z,41.88
2023-05-01T13:24:22.165Z,41.75
2023-05-01T13:25:25.584Z,41.91
2023-05-01T13:26:32.392Z,42.65
2023-05-01T13:27:35.750Z,42.97
2023-05-01T13:28:46.117Z,43.37
2023-05-01T13:30:01.513Z,43.18
2023-05-01T13:31:15.776Z,43.88
2023-05-01T13:32:19.547Z,43.20
2023-05-01T13:33:23.194Z,43.24
2023-05-01T13:34:31.488Z,43.77
2023-05-01T13:35:35.705Z,43.88
2023-05-01T13:36:40.002Z,43.79
2023-05-01T13:37:43.486Z,44.29
2023-05-01T13:38:54.829Z,44.02
2023-05-01T13:40:01.664Z,43.58
2023-05-01T13:41:05.373Z,44.36
2023-05-01T13:42:09.669Z,45.07
2023-05-01T13:43:16.365Z,44.16
2023-05-01T13:44:19.934Z,44.97
2023-05-01T13:45:23.382Z,45.53
2023-05-01T13:46:30.236Z,45.97
2023-05-01T13:47:33.936Z,45.54
2023-05-01T13:48:37.091Z,44.97
2023-05-01T13:49:42.440Z,44.97
2023-05-01T13:50:46.057Z,45.34
2023-05-01T13:51:49.934Z,44.87
2023-05-01T13:52:53.406Z,44.79
2023-05-01T13:53:57.107Z,45.05
2023-05-01T13:55:02.034Z,45.25
2023-05-01T13:56:08.448Z,45.51
2023-05-01T13:57:12.208Z,45.89
2023-05-01T13:58:16.171Z,46.40
2023-05-01T13:59:19.722Z,46.38
2023-05-01T14:00:23.418Z,46.11
2023-05-01T14:01:27.204Z,46.96
2023-05-01T14:02:31.106Z,46.94
2023-05-01T14:03:41.522Z,47.37
2023-05-01T14:04:45.344Z,47.36
2023-05-01T14:05:49.449Z,47.81
2023-05-01T14:06:53.225Z,47.43
2023-05-01T14:07:58.192Z,47.96
2023-05-01T14:09:01.655Z,47.56